createdAt,value
2022-11-18T00:01:19.729Z,8.54
2022-11-18T00:03:50.441Z,8.45
2022-11-18T00:06:20.191Z,8.42
2022-11-18T00:08:48.778Z,8.41
2022-11-18T00:11:38.576Z,8.55
2022-11-18T00:14:22.457Z,8.53
2022-11-18T00:16:53.350Z,8.49
2022-11-18T00:19:24.866Z,8.39
2022-11-18T00:21:53.055Z,8.47
2022-11-18T00:24:21.295Z,8.49
2022-11-18T00:26:49.687Z,8.41
2022-11-18T00:29:19.103Z,8.42
2022-11-18T00:31:47.546Z,8.41
2022-11-18T00:34:17.827Z,8.35
2022-11-18T00:36:48.565Z,8.34
2022-11-18T00:39:18.805Z,8.34
2022-11-18T00:42:05.142Z,8.28
2022-11-18T00:44:33.336Z,8.30
2022-11-18T00:47:01.513Z,8.27
2022-11-18T00:49:29.625Z,8.37
2022-11-18T00:51:59.135Z,8.33
2022-11-18T00:54:27.242Z,8.20
2022-11-18T00:56:55.421Z,8.15
2022-11-18T00:59:23.563Z,8.14
2022-11-18T01:01:51.789Z,8.18
2022-11-18T01:04:20.342Z,8.18
2022-11-18T01:06:48.444Z,8.16
2022-11-18T01:09:19.200Z,8.19
2022-11-18T01:12:05.075Z,8.21
2022-11-18T01:14:33.111Z,8.21
2022-11-18T01:17:01.214Z,8.28
2022-11-18T01:19:29.325Z,8.25
2022-11-18T01:22:03.056Z,8.23
2022-11-18T01:24:33.685Z,8.19
2022-11-18T01:27:03.194Z,8.21
2022-11-18T01:29:31.341Z,8.21
2022-11-18T01:32:23.288Z,8.18
2022-11-18T01:34:47.656Z,8.18
2022-11-18T01:37:15.836Z,8.14
2022-11-18T01:39:45.277Z,8.12
2022-11-18T01:42:19.139Z,8.10
2022-11-18T01:45:22.762Z,8.12
2022-11-18T01:47:56.976Z,8.08
2022-11-18T01:50:26.789Z,8.00
2022-11-18T01:52:57.428Z,7.99
2022-11-18T01:55:30.344Z,7.98
2022-11-18T02:02:12.019Z,7.94
2022-11-18T02:04:42.075Z,7.93
2022-11-18T02:07:11.630Z,7.93
2022-11-18T02:09:39.913Z,7.93
2022-11-18T02:12:10.128Z,7.93
2022-11-18T02:14:41.643Z,7.92
2022-11-18T02:17:18.703Z,7.95
2022-11-18T02:20:08.463Z,8.04
2022-11-18T02:22:49.980Z,8.08
2022-11-18T02:25:30.103Z,8.06
2022-11-18T02:28:24.280Z,8.12
2022-11-18T02:31:00.425Z,8.09
2022-11-18T02:33:35.121Z,8.08
2022-11-18T02:36:09.849Z,8.10
2022-11-18T02:38:44.520Z,8.10
2022-11-18T02:41:17.659Z,8.11
2022-11-18T02:43:49.006Z,8.11
2022-11-18T02:46:25.223Z,8.11
2022-11-18T02:48:54.961Z,8.16
2022-11-18T02:51:26.587Z,8.19
2022-11-18T02:53:57.942Z,8.20
2022-11-18T02:56:28.700Z,8.21
2022-11-18T02:58:56.889Z,8.16
2022-11-18T03:01:29.766Z,8.14
2022-11-18T03:03:58.134Z,8.05
2022-11-18T03:06:33.348Z,8.13
2022-11-18T03:09:10.461Z,8.23
2022-11-18T03:11:44.958Z,8.13
2022-11-18T03:14:24.897Z,8.05
2022-11-18T03:17:01.492Z,7.80
2022-11-18T03:19:42.349Z,7.76
2022-11-18T03:22:15.523Z,7.70
2022-11-18T03:24:50.571Z,7.58
2022-11-18T03:27:25.286Z,7.51
2022-11-18T03:30:00.241Z,7.71
2022-11-18T03:32:33.099Z,7.77
2022-11-18T03:35:05.526Z,7.87
2022-11-18T03:37:36.111Z,7.98
2022-11-18T03:40:12.768Z,7.91
2022-11-18T03:42:45.154Z,7.89
2022-11-18T03:45:34.610Z,7.91
2022-11-18T03:48:09.415Z,7.85
2022-11-18T03:50:41.718Z,7.81
2022-11-18T03:53:12.199Z,7.77
2022-11-18T03:55:43.055Z,7.88
2022-11-18T03:58:17.004Z,7.78
2022-11-18T04:00:49.604Z,7.79
2022-11-18T04:03:19.025Z,7.73
2022-11-18T04:05:53.290Z,7.65
2022-11-18T04:08:26.552Z,7.79
2022-11-18T04:11:00.835Z,7.86
2022-11-18T04:13:32.516Z,7.83
2022-11-18T04:16:01.146Z,7.91
2022-11-18T04:18:30.565Z,7.82
2022-11-18T04:20:58.572Z,7.82
2022-11-18T04:23:26.757Z,7.99
2022-11-18T04:25:54.820Z,7.95
2022-11-18T04:28:22.854Z,7.97
2022-11-18T04:30:51.030Z,7.98
2022-11-18T04:33:19.086Z,7.99
2022-11-18T04:35:49.383Z,8.02
2022-11-18T04:38:21.902Z,8.12
2022-11-18T04:40:50.323Z,8.14
2022-11-18T04:43:18.318Z,8.22
2022-11-18T04:45:46.516Z,8.19
2022-11-18T04:48:16.154Z,8.09
2022-11-18T04:50:44.263Z,7.98
2022-11-18T04:53:13.679Z,7.96
2022-11-18T04:55:41.812Z,7.97
2022-11-18T04:58:09.921Z,7.95
2022-11-18T05:00:37.982Z,7.97
2022-11-18T05:03:06.756Z,7.91
2022-11-18T05:05:36.203Z,7.87
2022-11-18T05:08:04.306Z,7.89
2022-11-18T05:10:33.980Z,7.91
2022-11-18T05:13:01.244Z,7.96
2022-11-18T05:15:29.498Z,7.92
2022-11-18T05:17:57.609Z,7.76
2022-11-18T05:20:25.689Z,7.87
2022-11-18T05:22:53.699Z,7.84
2022-11-18T05:25:21.796Z,7.80
2022-11-18T05:27:51.436Z,7.83
2022-11-18T05:30:19.710Z,7.76
2022-11-18T05:32:47.968Z,7.70
2022-11-18T05:35:16.145Z,7.65
2022-11-18T05:37:44.620Z,7.73
2022-11-18T05:40:14.168Z,7.82
2022-11-18T05:43:01.251Z,7.91
2022-11-18T05:45:31.234Z,7.89
2022-11-18T05:48:04.925Z,8.01
2022-11-18T05:50:33.974Z,7.94
2022-11-18T05:53:02.611Z,7.94
2022-11-18T05:55:36.668Z,7.94
2022-11-18T05:58:04.786Z,7.98
2022-11-18T06:00:34.946Z,8.00
2022-11-18T06:03:05.049Z,8.12
2022-11-18T06:05:33.256Z,8.15
2022-11-18T06:08:01.258Z,8.10
2022-11-18T06:10:31.516Z,8.14
2022-11-18T06:13:05.145Z,8.19
2022-11-18T06:15:38.125Z,8.21
2022-11-18T06:18:10.072Z,8.26
2022-11-18T06:20:41.755Z,8.29
2022-11-18T06:23:10.308Z,8.35
2022-11-18T06:25:41.164Z,8.31
2022-11-18T06:28:11.922Z,8.32
2022-11-18T06:30:41.552Z,8.35
2022-11-18T06:33:10.147Z,8.34
2022-11-18T06:35:38.921Z,8.52
2022-11-18T06:38:07.342Z,8.58
2022-11-18T06:40:35.357Z,8.48
2022-11-18T06:43:24.719Z,8.31
2022-11-18T06:46:26.667Z,8.36
2022-11-18T06:48:54.974Z,8.54
2022-11-18T06:51:23.611Z,8.54
2022-11-18T06:53:52.040Z,8.54
2022-11-18T06:56:21.600Z,8.57
2022-11-18T06:58:54.168Z,8.46
2022-11-18T07:01:25.485Z,8.60
2022-11-18T07:03:54.502Z,8.77
2022-11-18T07:06:26.414Z,8.75
2022-11-18T07:08:54.946Z,8.88
2022-11-18T07:11:25.797Z,8.92
2022-11-18T07:13:54.228Z,8.88
2022-11-18T07:16:25.672Z,8.74
2022-11-18T07:18:55.805Z,8.86
2022-11-18T07:21:25.487Z,8.83
2022-11-18T07:23:53.826Z,8.91
2022-11-18T07:26:22.295Z,9.00
2022-11-18T07:28:50.466Z,9.06
2022-11-18T07:31:21.188Z,9.10
2022-11-18T07:33:53.707Z,9.08
2022-11-18T07:36:23.880Z,9.05
2022-11-18T07:38:52.627Z,9.13
2022-11-18T07:41:24.088Z,9.22
2022-11-18T07:43:59.013Z,9.21
2022-11-18T07:46:30.318Z,9.38
2022-11-18T07:49:01.570Z,9.48
2022-11-18T07:51:31.534Z,9.54
2022-11-18T07:53:59.594Z,9.45
2022-11-18T07:56:28.187Z,9.26
2022-11-18T07:58:57.073Z,9.29
2022-11-18T08:10:48.786Z,9.74
2022-11-18T08:13:18.134Z,9.87
2022-11-18T08:15:46.122Z,9.98
2022-11-18T08:18:14.228Z,10.04
2022-11-18T08:20:42.262Z,9.96
2022-11-18T08:23:10.277Z,9.86
2022-11-18T08:25:38.743Z,9.86
2022-11-18T08:28:08.464Z,10.07
2022-11-18T08:30:37.239Z,10.02
2022-11-18T08:33:05.466Z,10.08
2022-11-18T08:35:34.408Z,10.02
2022-11-18T08:38:02.878Z,10.07
2022-11-18T08:40:30.963Z,10.03
2022-11-18T08:42:59.052Z,9.76
2022-11-18T08:45:28.555Z,9.80
2022-11-18T08:47:56.631Z,10.04
2022-11-18T08:50:24.765Z,9.95
2022-11-18T08:52:52.842Z,10.10
2022-11-18T08:55:20.849Z,10.21
2022-11-18T08:57:49.725Z,10.11
2022-11-18T09:00:18.813Z,10.29
2022-11-18T09:02:48.424Z,10.23
2022-11-18T09:05:16.671Z,10.08
2022-11-18T09:07:44.870Z,10.35
2022-11-18T09:10:12.912Z,10.27
2022-11-18T09:12:40.964Z,10.44
2022-11-18T09:17:59.999Z,10.58
2022-11-18T09:20:28.473Z,10.65
2022-11-18T09:22:56.618Z,10.70
2022-11-18T09:25:24.720Z,10.78
2022-11-18T09:27:53.146Z,10.75
2022-11-18T09:30:21.487Z,10.99
2022-11-18T09:32:50.705Z,11.09
2022-11-18T09:35:20.235Z,10.96
2022-11-18T09:37:48.311Z,11.01
2022-11-18T09:40:19.156Z,11.09
2022-11-18T09:42:59.048Z,10.83
2022-11-18T09:45:33.807Z,10.74
2022-11-18T09:48:18.006Z,10.85
2022-11-18T09:50:50.063Z,10.57
2022-11-18T09:53:21.524Z,10.42
2022-11-18T09:55:51.522Z,10.27
2022-11-18T09:58:34.323Z,10.23
2022-11-18T10:01:03.129Z,10.45
2022-11-18T10:03:32.837Z,10.83
2022-11-18T10:06:16.952Z,11.06
2022-11-18T10:09:08.245Z,11.19
2022-11-18T10:11:45.185Z,11.37
2022-11-18T10:14:28.210Z,11.46
2022-11-18T10:17:11.883Z,11.34
2022-11-18T10:19:44.276Z,11.38
2022-11-18T10:22:24.830Z,11.32
2022-11-18T10:24:54.717Z,10.81
2022-11-18T10:27:24.650Z,10.97
2022-11-18T10:29:58.563Z,10.92
2022-11-18T10:32:26.855Z,10.76
2022-11-18T10:34:57.408Z,10.51
2022-11-18T10:40:27.562Z,10.68
2022-11-18T10:42:56.124Z,10.97
2022-11-18T10:45:28.204Z,11.22
2022-11-18T10:48:08.241Z,11.13
2022-11-18T10:50:37.683Z,11.26
2022-11-18T10:53:27.346Z,11.38
2022-11-18T10:56:00.287Z,11.20
2022-11-18T10:58:31.982Z,11.12
2022-11-18T11:01:07.528Z,11.03
2022-11-18T11:03:39.009Z,10.81
2022-11-18T11:06:38.139Z,10.83
2022-11-18T11:09:10.943Z,10.86
2022-11-18T11:11:43.401Z,10.60
2022-11-18T11:14:28.411Z,10.72
2022-11-18T11:17:05.784Z,10.67
2022-11-18T11:19:49.449Z,10.54
2022-11-18T11:22:17.774Z,10.53
2022-11-18T11:24:47.691Z,10.55
2022-11-18T11:30:29.260Z,10.74
2022-11-18T11:33:23.124Z,10.56
2022-11-18T11:36:10.691Z,10.70
2022-11-18T11:38:51.111Z,10.96
2022-11-18T11:41:24.636Z,10.83
2022-11-18T11:44:13.741Z,10.87
2022-11-18T11:47:08.808Z,10.79
2022-11-18T11:49:50.601Z,11.12
2022-11-18T11:52:26.464Z,11.22
2022-11-18T11:55:02.986Z,11.14
2022-11-18T11:57:43.903Z,11.46
2022-11-18T12:00:16.131Z,11.47
2022-11-18T12:02:58.790Z,11.51
2022-11-18T12:05:34.440Z,11.60
2022-11-18T12:08:05.428Z,11.63
2022-11-18T12:10:49.581Z,11.80
2022-11-18T12:13:34.298Z,11.66
2022-11-18T12:16:12.159Z,11.73
2022-11-18T12:18:44.972Z,11.81
2022-11-18T12:21:46.509Z,11.68
2022-11-18T12:24:33.340Z,11.74
2022-11-18T12:27:03.156Z,11.85
2022-11-18T12:29:40.978Z,11.84
2022-11-18T12:32:29.860Z,11.86
2022-11-18T12:35:02.735Z,12.09
2022-11-18T12:37:46.438Z,12.34
2022-11-18T12:40:34.424Z,12.24
2022-11-18T12:43:20.598Z,12.34
2022-11-18T12:45:55.863Z,12.36
2022-11-18T12:48:41.442Z,12.26
2022-11-18T12:51:47.971Z,12.07
2022-11-18T12:54:29.646Z,12.23
2022-11-18T12:57:01.060Z,12.25
2022-11-18T12:59:35.758Z,12.31
2022-11-18T13:02:16.798Z,12.36
2022-11-18T13:04:48.599Z,12.43
2022-11-18T13:07:37.798Z,12.46
2022-11-18T13:10:21.408Z,12.04
2022-11-18T13:12:50.368Z,11.78
2022-11-18T13:15:37.598Z,11.86
2022-11-18T13:18:16.605Z,11.87
2022-11-18T13:20:45.568Z,11.84
2022-11-18T13:23:46.975Z,11.92
2022-11-18T13:26:20.593Z,11.68
2022-11-18T13:29:16.993Z,11.73
2022-11-18T13:31:53.511Z,11.87
2022-11-18T13:34:26.102Z,11.84
2022-11-18T13:36:56.555Z,11.76
2022-11-18T13:39:26.530Z,11.97
2022-11-18T13:42:05.688Z,11.93
2022-11-18T13:44:35.105Z,11.82
2022-11-18T13:47:12.990Z,11.57
2022-11-18T13:49:55.608Z,11.74
2022-11-18T13:52:29.142Z,12.00
2022-11-18T13:55:00.288Z,11.96
2022-11-18T13:57:30.333Z,11.97
2022-11-18T14:00:20.819Z,11.71
2022-11-18T14:02:59.391Z,11.63
2022-11-18T14:05:29.390Z,11.75
2022-11-18T14:08:02.218Z,11.93
2022-11-18T14:10:40.148Z,11.81
2022-11-18T14:13:19.155Z,11.86
2022-11-18T14:15:47.713Z,12.01
2022-11-18T14:18:22.623Z,11.99
2022-11-18T14:20:56.170Z,11.92
2022-11-18T14:23:30.919Z,11.76
2022-11-18T14:26:00.672Z,11.79
2022-11-18T14:28:34.043Z,11.79
2022-11-18T14:31:05.146Z,11.75
2022-11-18T14:33:34.485Z,11.61
2022-11-18T14:36:10.826Z,11.47
2022-11-18T14:39:11.244Z,11.50
2022-11-18T14:41:50.909Z,11.46
2022-11-18T14:44:20.614Z,11.46
2022-11-18T14:46:52.433Z,11.28
2022-11-18T14:49:24.134Z,11.29
2022-11-18T14:51:54.797Z,11.25
2022-11-18T14:54:26.837Z,11.29
2022-11-18T14:56:58.475Z,11.07
2022-11-18T14:59:26.707Z,11.08
2022-11-18T15:01:55.121Z,11.07
2022-11-18T15:04:23.354Z,11.00
2022-11-18T15:06:51.364Z,11.18
2022-11-18T15:09:20.749Z,11.05
2022-11-18T15:11:48.822Z,11.01
2022-11-18T15:14:17.403Z,11.19
2022-11-18T15:16:45.627Z,11.21
2022-11-18T15:19:16.719Z,11.20
2022-11-18T15:21:45.615Z,11.11
2022-11-18T15:24:13.917Z,11.05
2022-11-18T15:26:45.467Z,11.08
2022-11-18T15:29:17.866Z,10.93
2022-11-18T15:31:46.069Z,11.06
2022-11-18T15:34:14.672Z,11.05
2022-11-18T15:36:42.958Z,10.96
2022-11-18T15:39:12.087Z,10.97
2022-11-18T15:41:41.698Z,11.03
2022-11-18T15:44:12.787Z,10.82
2022-11-18T15:46:40.913Z,10.81
2022-11-18T15:49:13.531Z,11.10
2022-11-18T15:51:42.195Z,11.09
2022-11-18T15:54:10.635Z,11.09
2022-11-18T15:56:39.954Z,11.08
2022-11-18T15:59:11.076Z,11.10
2022-11-18T16:01:43.022Z,10.97
2022-11-18T16:04:13.756Z,10.84
2022-11-18T16:06:43.527Z,11.08
2022-11-18T16:09:12.796Z,11.03
2022-11-18T16:11:58.529Z,10.94
2022-11-18T16:14:26.981Z,10.88
2022-11-18T16:16:57.991Z,10.98
2022-11-18T16:19:31.596Z,11.00
2022-11-18T16:21:59.687Z,11.04
2022-11-18T16:24:29.906Z,10.91
2022-11-18T16:26:58.624Z,10.94
2022-11-18T16:29:26.713Z,10.83
2022-11-18T16:31:56.320Z,10.78
2022-11-18T16:34:26.183Z,10.60
2022-11-18T16:36:55.431Z,10.57
2022-11-18T16:39:25.995Z,10.44
2022-11-18T16:41:55.619Z,10.60
2022-11-18T16:44:24.391Z,10.65
2022-11-18T16:46:54.088Z,10.60
2022-11-18T16:49:26.132Z,10.65
2022-11-18T16:51:56.143Z,10.75
2022-11-18T16:54:25.591Z,10.80
2022-11-18T16:56:55.006Z,10.83
2022-11-18T16:59:24.544Z,10.76
2022-11-18T17:01:54.000Z,10.51
2022-11-18T17:04:24.574Z,10.49
2022-11-18T17:06:53.184Z,10.55
2022-11-18T17:09:22.999Z,10.65
2022-11-18T17:11:52.612Z,10.78
2022-11-18T17:14:21.976Z,10.70
2022-11-18T17:16:51.235Z,10.60
2022-11-18T17:19:21.847Z,10.55
2022-11-18T17:21:52.604Z,10.47
2022-11-18T17:24:22.519Z,10.70
2022-11-18T17:26:52.252Z,10.67
2022-11-18T17:29:21.199Z,10.62
2022-11-18T17:31:49.948Z,10.58
2022-11-18T17:34:19.088Z,10.55
2022-11-18T17:36:47.383Z,10.53
2022-11-18T17:39:18.154Z,10.56
2022-11-18T17:42:03.874Z,10.50
2022-11-18T17:44:32.184Z,10.74
2022-11-18T17:47:00.218Z,10.80
2022-11-18T17:49:28.227Z,10.88
2022-11-18T17:51:56.370Z,10.87
2022-11-18T17:54:26.133Z,10.80
2022-11-18T17:56:54.299Z,10.75
2022-11-18T17:59:23.198Z,10.76
2022-11-18T18:01:57.553Z,10.72
2022-11-18T18:04:27.525Z,10.59
2022-11-18T18:06:55.897Z,10.80
2022-11-18T18:09:30.546Z,10.74
2022-11-18T18:11:58.960Z,10.75
2022-11-18T18:14:26.055Z,10.62
2022-11-18T18:16:55.462Z,10.60
2022-11-18T18:19:24.639Z,10.76
2022-11-18T18:21:53.530Z,10.75
2022-11-18T18:24:22.372Z,10.84
2022-11-18T18:26:52.377Z,10.76
2022-11-18T18:29:20.429Z,10.73
2022-11-18T18:31:48.442Z,10.55
2022-11-18T18:34:18.046Z,10.69
2022-11-18T18:36:46.281Z,10.88
2022-11-18T18:39:15.486Z,10.69
2022-11-18T18:41:43.701Z,10.69
2022-11-18T18:44:18.341Z,10.63
2022-11-18T18:46:46.038Z,10.71
2022-11-18T18:49:15.969Z,10.88
2022-11-18T18:51:45.879Z,10.87
2022-11-18T18:54:16.552Z,10.86
2022-11-18T18:56:46.768Z,10.86
2022-11-18T18:59:16.328Z,10.83
2022-11-18T19:01:45.367Z,10.65
2022-11-18T19:04:16.716Z,10.76
2022-11-18T19:06:59.994Z,10.85
2022-11-18T19:09:28.528Z,10.81
2022-11-18T19:12:13.946Z,10.79
2022-11-18T19:14:43.808Z,10.58
2022-11-18T19:17:13.197Z,10.78
2022-11-18T19:20:00.555Z,10.69
2022-11-18T19:22:30.561Z,10.66
2022-11-18T19:24:59.409Z,10.66
2022-11-18T19:27:27.799Z,10.75
2022-11-18T19:29:57.256Z,10.98
2022-11-18T19:32:25.484Z,10.92
2022-11-18T19:34:53.605Z,10.72
2022-11-18T19:37:21.770Z,10.87
2022-11-18T19:39:49.911Z,10.92
2022-11-18T19:42:17.965Z,10.76
2022-11-18T19:44:46.596Z,10.83
2022-11-18T19:47:16.278Z,10.66
2022-11-18T19:49:44.469Z,10.73
2022-11-18T19:52:12.891Z,10.59
2022-11-18T19:54:41.566Z,10.52
2022-11-18T19:57:10.344Z,10.81
2022-11-18T19:59:38.440Z,10.88
2022-11-18T20:02:07.529Z,10.84
2022-11-18T20:04:37.139Z,10.76
2022-11-18T20:07:05.716Z,10.74
2022-11-18T20:09:34.016Z,10.74
2022-11-18T20:12:02.174Z,10.66
2022-11-18T20:14:30.646Z,10.58
2022-11-18T20:16:58.807Z,10.45
2022-11-18T20:19:27.006Z,10.49
2022-11-18T20:21:56.743Z,10.55
2022-11-18T20:24:24.832Z,10.71
2022-11-18T20:26:52.903Z,10.63
2022-11-18T20:29:21.546Z,10.69
2022-11-18T20:31:51.408Z,10.64
2022-11-18T20:34:19.541Z,10.59
2022-11-18T20:36:51.838Z,10.47
2022-11-18T20:39:21.909Z,10.54
2022-11-18T20:42:06.501Z,10.53
2022-11-18T20:44:34.558Z,10.54
2022-11-18T20:47:02.594Z,10.49
2022-11-18T20:49:30.756Z,10.55
2022-11-18T20:51:58.832Z,10.58
2022-11-18T20:54:28.296Z,10.56
2022-11-18T20:56:56.365Z,10.50
2022-11-18T20:59:24.825Z,10.42
2022-11-18T21:01:53.038Z,10.51
2022-11-18T21:04:21.246Z,10.56
2022-11-18T21:06:49.331Z,10.54
2022-11-18T21:09:17.738Z,10.45
2022-11-18T21:11:47.357Z,10.51
2022-11-18T21:14:23.270Z,10.54
2022-11-18T21:16:52.873Z,10.54
2022-11-18T21:19:22.377Z,10.45
2022-11-18T21:21:52.718Z,10.43
2022-11-18T21:24:23.085Z,10.35
2022-11-18T21:26:55.735Z,10.32
2022-11-18T21:29:25.116Z,10.29
2022-11-18T21:31:54.470Z,10.32
2022-11-18T21:34:23.359Z,10.41
2022-11-18T21:36:54.655Z,10.39
2022-11-18T21:39:23.583Z,10.43
2022-11-18T21:41:57.638Z,10.36
2022-11-18T21:44:28.184Z,10.37
2022-11-18T21:46:56.999Z,10.35
2022-11-18T21:49:25.038Z,10.37
2022-11-18T21:51:53.175Z,10.26
2022-11-18T21:54:21.201Z,10.21
2022-11-18T21:56:49.401Z,10.23
2022-11-18T21:59:19.241Z,10.30
2022-11-18T22:01:47.535Z,10.31
2022-11-18T22:04:37.699Z,10.41
2022-11-18T22:07:06.445Z,10.43
2022-11-18T22:09:36.810Z,10.41
2022-11-18T22:12:07.937Z,10.36
2022-11-18T22:14:37.951Z,10.22
2022-11-18T22:17:06.325Z,10.25
2022-11-18T22:19:35.488Z,10.16
2022-11-18T22:22:03.627Z,10.07
2022-11-18T22:24:31.709Z,10.02
2022-11-18T22:26:59.806Z,10.02
2022-11-18T22:29:27.887Z,9.91
2022-11-18T22:31:57.709Z,9.93
2022-11-18T22:34:26.537Z,10.00
2022-11-18T22:36:54.580Z,9.99
2022-11-18T22:39:22.962Z,10.10
2022-11-18T22:42:08.790Z,10.23
2022-11-18T22:44:36.760Z,10.29
2022-11-18T22:47:06.825Z,10.27
2022-11-18T22:49:34.891Z,10.23
2022-11-18T22:52:03.013Z,10.17
2022-11-18T22:54:38.904Z,10.14
2022-11-18T22:57:07.976Z,10.17
2022-11-18T22:59:36.061Z,10.25
2022-11-18T23:02:06.209Z,10.15
2022-11-18T23:04:34.380Z,10.13
2022-11-18T23:07:02.683Z,10.11
2022-11-18T23:09:30.760Z,10.13
2022-11-18T23:12:16.176Z,10.06
2022-11-18T23:14:44.337Z,10.13
2022-11-18T23:17:13.958Z,9.99
2022-11-18T23:19:43.932Z,10.18
2022-11-18T23:22:12.354Z,10.16
2022-11-18T23:24:40.476Z,10.11
2022-11-18T23:27:08.562Z,10.21
2022-11-18T23:29:36.729Z,10.16
2022-11-18T23:32:05.071Z,10.20
2022-11-18T23:34:34.579Z,10.18
2022-11-18T23:37:02.865Z,10.25
2022-11-18T23:39:30.972Z,10.25
2022-11-18T23:41:59.171Z,10.22
2022-11-18T23:44:41.051Z,10.22
2022-11-18T23:47:09.735Z,10.15
2022-11-18T23:49:39.141Z,10.24
2022-11-18T23:52:07.275Z,10.09
2022-11-18T23:54:35.447Z,10.10
2022-11-18T23:57:05.469Z,10.08
2022-11-18T23:59:33.862Z,10.19
